Eveleth, MN

7:10 AM CDT on April 21, 2018 (GMT -0500)
Eveleth-Virginia Municipal

Weather History for KEVM - June, 2013

Change the Weather History Date:

Tuesday, June 18, 2013

  Actual Average Record
Temperature  
Mean Temperature 52 °F -  
Max Temperature 71 °F 70 °F 86 °F (1987)
Min Temperature 33 °F 48 °F 33 °F (2013)
Degree Days  
Heating Degree Days 13    
Growing Degree Days 2 (Base 50)    
Moisture  
Dew Point 37 °F    
Average Humidity 59    
Maximum Humidity 100    
Minimum Humidity 26    
Precipitation  
Precipitation 0.00 in - - ()
Sea Level Pressure  
Sea Level Pressure 30.13 in    
Wind  
Wind Speed 2 mph (SE)    
Max Wind Speed 10 mph    
Max Gust Speed -    
Visibility 10 miles    
Events      
Averages and records for this station are not official NWS values.
T = Trace of Precipitation, MM = Missing Value Source: NWS Daily Summary

Daily Weather History Graph

Daily Weather History Graph

Search for Another Location

Airport or City:

Astronomy

Jun. 18, 2013 Rise Set
Actual Time 5:12 AM CDT 9:09 PM CDT
Civil Twilight 4:32 AM CDT 9:50 PM CDT
Nautical Twilight 3:36 AM CDT 10:46 PM CDT
Astronomical Twilight 2:08 AM CDT 12:14 AM CDT
Moon 3:39 PM CDT (6/18) 1:40 AM CDT (6/18)
Length of Visible Light 17h 18m
Length of Day
15h 57m
Waxing Gibbous, 71% of the Moon is Illuminated
Jun 18
Waxing Gibbous
Jun 23
Full
Jun 29
Last Quarter
Jul 8
New
Jul 15
First Quarter

Hourly Weather History & Observations

Time (CDT) Temp. Dew Point Humidity Pressure Visibility Wind Dir Wind Speed Gust Speed Precip Events Conditions
12:09 AM 42.8 °F 41.0 °F 93% 30.13 in 10.0 mi Calm Calm - N/A   Clear
12:29 AM 42.8 °F 41.0 °F 93% 30.13 in 10.0 mi Calm Calm - N/A   Clear
12:49 AM 39.2 °F 37.4 °F 93% 30.13 in 7.0 mi Calm Calm - N/A   Clear
1:09 AM 39.2 °F 37.4 °F 93% 30.13 in 10.0 mi Calm Calm - N/A   Clear
1:29 AM 39.2 °F 37.4 °F 93% 30.13 in 10.0 mi Calm Calm - N/A   Clear
1:49 AM 35.6 °F 35.6 °F 100% 30.14 in 10.0 mi Calm Calm - N/A   Clear
2:09 AM 35.6 °F 35.6 °F 100% 30.14 in 10.0 mi Calm Calm - N/A   Clear
2:29 AM 35.6 °F 35.6 °F 100% 30.14 in 10.0 mi Calm Calm - N/A   Clear
2:49 AM 37.4 °F 35.6 °F 93% 30.15 in 7.0 mi Calm Calm - N/A   Clear
3:09 AM 35.6 °F 35.6 °F 100% 30.15 in 10.0 mi Calm Calm - N/A   Clear
3:29 AM 35.6 °F 35.6 °F 100% 30.15 in 10.0 mi Calm Calm - N/A   Clear
3:49 AM 35.6 °F 35.6 °F 100% 30.15 in 7.0 mi Calm Calm - N/A   Clear
4:09 AM 35.6 °F 33.8 °F 93% 30.15 in 10.0 mi Calm Calm - N/A   Clear
4:29 AM 35.6 °F 35.6 °F 100% 30.15 in 10.0 mi Calm Calm - N/A   Clear
4:49 AM 33.8 °F 33.8 °F 100% 30.15 in 10.0 mi Calm Calm - N/A   Clear
5:09 AM 33.8 °F 33.8 °F 100% 30.16 in 10.0 mi Calm Calm - N/A   Clear
5:29 AM 33.8 °F 33.8 °F 100% 30.16 in 10.0 mi Calm Calm - N/A   Clear
5:48 AM 33.8 °F 33.8 °F 100% 30.16 in 10.0 mi Calm Calm - N/A   Clear
6:09 AM 35.6 °F 35.6 °F 100% 30.16 in 10.0 mi Calm Calm - N/A   Clear
6:29 AM 37.4 °F 37.4 °F 100% 30.17 in 10.0 mi Calm Calm - N/A   Clear
6:48 AM 42.8 °F 41.0 °F 93% 30.17 in 10.0 mi Calm Calm - N/A   Clear
7:09 AM 48.2 °F 44.6 °F 87% 30.17 in 10.0 mi Calm Calm - N/A   Clear
7:29 AM 51.8 °F 41.0 °F 67% 30.17 in 10.0 mi Calm Calm - N/A   Clear
7:49 AM 51.8 °F 41.0 °F 67% 30.17 in 10.0 mi Calm Calm - N/A   Clear
8:09 AM 55.4 °F 39.2 °F 54% 30.17 in 10.0 mi NE 3.5 mph - N/A   Clear
8:29 AM 57.2 °F 41.0 °F 55% 30.17 in 10.0 mi Calm Calm - N/A   Clear
8:49 AM 59.0 °F 41.0 °F 51% 30.17 in 10.0 mi East 4.6 mph - N/A   Clear
9:09 AM 62.6 °F 41.0 °F 45% 30.18 in 10.0 mi East 3.5 mph - N/A   Clear
9:28 AM 62.6 °F 37.4 °F 39% 30.18 in 10.0 mi ESE 3.5 mph - N/A   Clear
9:49 AM 62.6 °F 37.4 °F 39% 30.17 in 10.0 mi SE 3.5 mph - N/A   Clear
10:09 AM 62.6 °F 37.4 °F 39% 30.16 in 10.0 mi SE 8.1 mph - N/A   Clear
10:28 AM 64.4 °F 37.4 °F 37% 30.16 in 10.0 mi East 4.6 mph - N/A   Clear
10:49 AM 64.4 °F 37.4 °F 37% 30.16 in 10.0 mi SE 6.9 mph - N/A   Clear
11:09 AM 64.4 °F 35.6 °F 34% 30.16 in 10.0 mi ESE 5.8 mph - N/A   Clear
11:28 AM 68.0 °F 37.4 °F 33% 30.16 in 10.0 mi SE 6.9 mph - N/A   Clear
11:49 AM 68.0 °F 37.4 °F 33% 30.15 in 10.0 mi ESE 5.8 mph - N/A   Clear
12:09 PM 66.2 °F 35.6 °F 32% 30.15 in 10.0 mi ESE 5.8 mph - N/A   Clear
12:28 PM 68.0 °F 37.4 °F 33% 30.15 in 10.0 mi East 5.8 mph - N/A   Clear
12:49 PM 68.0 °F 35.6 °F 30% 30.14 in 10.0 mi ESE 4.6 mph - N/A   Clear
1:09 PM 69.8 °F 35.6 °F 28% 30.14 in 10.0 mi SE 5.8 mph - N/A   Clear
1:28 PM 69.8 °F 37.4 °F 31% 30.13 in 10.0 mi SE 6.9 mph - N/A   Clear
1:49 PM 69.8 °F 37.4 °F 31% 30.13 in 10.0 mi SE 9.2 mph - N/A   Clear
2:09 PM 69.8 °F 35.6 °F 28% 30.12 in 10.0 mi ESE 5.8 mph - N/A   Clear
2:28 PM 71.6 °F 37.4 °F 29% 30.12 in 10.0 mi SSE 4.6 mph - N/A   Clear
2:49 PM 69.8 °F 35.6 °F 28% 30.12 in 10.0 mi SE 9.2 mph - N/A   Clear
3:09 PM 71.6 °F 37.4 °F 29% 30.12 in 10.0 mi South 9.2 mph - N/A   Clear
3:28 PM 71.6 °F 37.4 °F 29% 30.12 in 10.0 mi SSE 6.9 mph - N/A   Clear
3:49 PM 71.6 °F 35.6 °F 27% 30.11 in 10.0 mi South 5.8 mph - N/A   Clear
4:08 PM 69.8 °F 33.8 °F 27% 30.10 in 10.0 mi Calm Calm - N/A   Clear
4:29 PM 71.6 °F 35.6 °F 27% 30.10 in 10.0 mi SE 4.6 mph - N/A   Clear
4:49 PM 71.6 °F 35.6 °F 27% 30.10 in 10.0 mi SE 8.1 mph - N/A   Clear
5:08 PM 69.8 °F 33.8 °F 27% 30.09 in 10.0 mi SE 8.1 mph - N/A   Clear
5:29 PM 69.8 °F 33.8 °F 27% 30.09 in 10.0 mi South 5.8 mph - N/A   Clear
5:49 PM 69.8 °F 33.8 °F 27% 30.09 in 10.0 mi SSE 6.9 mph - N/A   Clear
6:08 PM 69.8 °F 33.8 °F 27% 30.09 in 10.0 mi SSE 10.4 mph - N/A   Clear
6:29 PM 68.0 °F 32.0 °F 26% 30.08 in 10.0 mi SE 9.2 mph - N/A   Clear
6:49 PM 68.0 °F 32.0 °F 26% 30.09 in 10.0 mi SE 10.4 mph - N/A   Clear
7:08 PM 66.2 °F 32.0 °F 28% 30.09 in 10.0 mi SE 8.1 mph - N/A   Clear
7:29 PM 64.4 °F 32.0 °F 30% 30.09 in 10.0 mi SSE 9.2 mph - N/A   Clear
7:49 PM 64.4 °F 32.0 °F 30% 30.09 in 10.0 mi SSE 5.8 mph - N/A   Clear
8:08 PM 62.6 °F 32.0 °F 32% 30.09 in 10.0 mi SE 4.6 mph - N/A   Clear
8:29 PM 62.6 °F 32.0 °F 32% 30.08 in 10.0 mi Calm Calm - N/A   Clear
8:49 PM 57.2 °F 39.2 °F 51% 30.08 in 10.0 mi Calm Calm - N/A   Clear
9:08 PM 51.8 °F 39.2 °F 62% 30.08 in 10.0 mi Calm Calm - N/A   Clear
9:29 PM 50.0 °F 41.0 °F 71% 30.08 in 10.0 mi Calm Calm - N/A   Clear
9:49 PM 46.4 °F 39.2 °F 76% 30.09 in 10.0 mi Calm Calm - N/A   Clear
10:09 PM 46.4 °F 37.4 °F 71% 30.09 in 10.0 mi Calm Calm - N/A   Clear
10:29 PM 44.6 °F 37.4 °F 76% 30.08 in 10.0 mi Calm Calm - N/A   Clear
10:49 PM 42.8 °F 39.2 °F 87% 30.08 in 10.0 mi Calm Calm - N/A   Clear
11:09 PM 42.8 °F 39.2 °F 87% 30.08 in 10.0 mi Calm Calm - N/A   Clear
11:29 PM 42.8 °F 39.2 °F 87% 30.08 in 10.0 mi Calm Calm - N/A   Clear
11:49 PM 42.8 °F 39.2 °F 87% 30.08 in 10.0 mi Calm Calm - N/A   Clear